Time;durP1;ratioP1;P1;durP2;ratioP2;P2;SDS_P1;SDS_P2;PMS_P1;PMS_P2;Temp;Humidity;BMP_temperature;BMP_pressure;BME280_temperature;BME280_humidity;BME280_pressure;Samples;Min_cycle;Max_cycle;Signal;HPM_P1;HPM_P2
2021/04/25 00:00:17;;;;;;;7.75;3.50;;;9.10;99.90;;;;;;5033927;28;20106;-65
2021/04/25 00:02:43;;;;;;;6.70;3.10;;;9.10;99.90;;;;;;5052115;28;20057;-65
2021/04/25 00:05:13;;;;;;;8.43;3.60;;;9.10;99.90;;;;;;5033241;28;20465;-64
2021/04/25 00:07:39;;;;;;;10.85;3.63;;;9.00;99.90;;;;;;5052068;28;20025;-64
2021/04/25 00:10:07;;;;;;;9.15;3.63;;;9.00;99.90;;;;;;5051891;28;20086;-63
2021/04/25 00:12:34;;;;;;;7.00;3.10;;;8.90;99.90;;;;;;5052006;28;20036;-65
2021/04/25 00:15:00;;;;;;;10.60;3.42;;;8.90;99.90;;;;;;5051702;28;20033;-65
2021/04/25 00:17:25;;;;;;;6.97;2.92;;;8.80;99.90;;;;;;5044172;28;20536;-64
2021/04/25 00:19:52;;;;;;;10.88;4.22;;;8.80;99.90;;;;;;5052060;28;20029;-63
2021/04/25 00:22:18;;;;;;;9.95;3.70;;;8.70;99.90;;;;;;5051449;28;20529;-64
2021/04/25 00:24:44;;;;;;;8.02;3.35;;;8.60;99.90;;;;;;5051933;28;20045;-64
2021/04/25 00:27:09;;;;;;;14.32;3.90;;;8.60;99.90;;;;;;5051665;28;20033;-64
2021/04/25 00:29:35;;;;;;;7.25;3.63;;;8.50;99.90;;;;;;5045123;28;20116;-64
2021/04/25 00:32:01;;;;;;;9.43;3.42;;;8.40;99.90;;;;;;5051588;28;20040;-64
2021/04/25 00:34:27;;;;;;;9.40;3.97;;;8.40;99.90;;;;;;5044267;28;20108;-65
2021/04/25 00:36:53;;;;;;;14.18;3.88;;;8.40;99.90;;;;;;5053465;28;20388;-65
2021/04/25 00:39:18;;;;;;;8.00;3.40;;;8.40;99.90;;;;;;5055392;28;20033;-65
2021/04/25 00:41:44;;;;;;;6.65;3.10;;;8.40;99.90;;;;;;5055512;28;20037;-65
2021/04/25 00:44:11;;;;;;;10.07;3.10;;;8.30;99.90;;;;;;5053643;28;20068;-65
2021/04/25 00:46:38;;;;;;;11.15;3.42;;;8.30;99.90;;;;;;5055154;28;20056;-65
2021/04/25 00:49:04;;;;;;;8.52;3.90;;;8.20;99.90;;;;;;5055290;28;20104;-64
2021/04/25 00:51:31;;;;;;;10.63;3.20;;;8.20;99.90;;;;;;5055323;28;20489;-65
2021/04/25 00:53:58;;;;;;;9.50;3.35;;;8.20;99.90;;;;;;5051602;28;20498;-64
2021/04/25 00:56:24;;;;;;;9.88;3.97;;;8.10;99.90;;;;;;5054878;28;20116;-65
2021/04/25 00:58:50;;;;;;;10.23;3.45;;;8.00;99.90;;;;;;5054729;28;20112;-64
2021/04/25 01:01:17;;;;;;;7.70;3.58;;;8.00;99.90;;;;;;5046079;28;20044;-64
2021/04/25 01:03:43;;;;;;;10.30;3.83;;;8.00;99.90;;;;;;5053752;28;20025;-64
2021/04/25 01:06:09;;;;;;;9.57;3.50;;;8.00;99.90;;;;;;5054687;28;20398;-64
2021/04/25 01:08:34;;;;;;;8.32;3.90;;;7.90;99.90;;;;;;5047997;28;20504;-64
2021/04/25 01:11:00;;;;;;;8.20;3.53;;;7.80;99.90;;;;;;5054771;28;20486;-64
2021/04/25 01:13:26;;;;;;;10.68;4.25;;;7.70;99.90;;;;;;5047212;28;20020;-64
2021/04/25 01:15:52;;;;;;;9.35;4.10;;;7.70;99.90;;;;;;5050883;28;20125;-64
2021/04/25 01:18:18;;;;;;;8.48;3.83;;;7.80;99.90;;;;;;5054471;28;20048;-64
2021/04/25 01:20:44;;;;;;;10.85;4.47;;;7.70;99.90;;;;;;5054581;28;20099;-65
2021/04/25 01:23:10;;;;;;;12.73;4.18;;;7.70;99.90;;;;;;5054603;28;20029;-65
2021/04/25 01:25:36;;;;;;;9.65;3.95;;;7.80;99.90;;;;;;5054756;28;20036;-64
2021/04/25 01:28:02;;;;;;;8.38;3.25;;;7.70;99.90;;;;;;5054368;28;20500;-63
2021/04/25 01:30:32;;;;;;;11.55;3.72;;;7.70;99.90;;;;;;5054588;28;20119;-63
2021/04/25 01:32:58;;;;;;;8.05;4.03;;;7.60;99.90;;;;;;5036476;28;20059;-63
2021/04/25 01:35:25;;;;;;;10.45;3.75;;;7.60;99.90;;;;;;5054217;28;20108;-63
2021/04/25 01:37:56;;;;;;;7.97;3.53;;;7.60;99.90;;;;;;5053237;28;20108;-63
2021/04/25 01:40:25;;;;;;;12.43;4.68;;;7.50;99.90;;;;;;5036204;28;20083;-64
2021/04/25 01:42:52;;;;;;;9.73;3.95;;;7.40;99.90;;;;;;5054040;28;20110;-64
2021/04/25 01:45:18;;;;;;;9.90;4.63;;;7.40;99.90;;;;;;5054189;28;20122;-63
2021/04/25 01:47:50;;;;;;;8.82;4.63;;;7.50;99.90;;;;;;5053703;28;20482;-64
2021/04/25 01:50:18;;;;;;;12.85;4.72;;;7.40;99.90;;;;;;5054126;28;20474;-64
2021/04/25 01:52:45;;;;;;;10.90;4.97;;;7.30;99.90;;;;;;5036342;28;20033;-64
2021/04/25 01:55:13;;;;;;;8.23;4.07;;;7.20;99.90;;;;;;5053950;28;20111;-62
2021/04/25 01:57:39;;;;;;;13.07;5.13;;;7.20;99.90;;;;;;5053764;28;20388;-64
2021/04/25 02:00:09;;;;;;;10.30;5.20;;;7.20;99.90;;;;;;5053853;28;20083;-63
2021/04/25 02:02:35;;;;;;;16.30;5.00;;;7.10;99.90;;;;;;5053691;28;20363;-64
2021/04/25 02:05:02;;;;;;;15.00;5.18;;;7.20;99.90;;;;;;5053879;28;20091;-64
2021/04/25 02:07:28;;;;;;;10.20;4.72;;;7.10;99.90;;;;;;5053890;28;20123;-64
2021/04/25 02:09:54;;;;;;;12.20;4.68;;;7.10;99.90;;;;;;5053737;28;20513;-64
2021/04/25 02:12:20;;;;;;;10.32;4.82;;;7.10;99.90;;;;;;5053946;28;20033;-64
2021/04/25 02:14:46;;;;;;;7.78;3.67;;;7.00;99.90;;;;;;5053682;28;20116;-64
2021/04/25 02:17:12;;;;;;;11.93;4.18;;;6.90;99.90;;;;;;5053598;28;20036;-64
2021/04/25 02:19:38;;;;;;;13.10;4.80;;;6.90;99.90;;;;;;5053402;28;20029;-64
2021/04/25 02:22:05;;;;;;;11.95;4.18;;;6.90;99.90;;;;;;5053212;28;20124;-64
2021/04/25 02:24:31;;;;;;;13.77;4.32;;;6.80;99.90;;;;;;5053542;28;20111;-63
2021/04/25 02:26:57;;;;;;;14.57;4.93;;;6.80;99.90;;;;;;5053323;28;20025;-65
2021/04/25 02:29:23;;;;;;;10.05;4.25;;;6.80;99.90;;;;;;5053254;28;20795;-64
2021/04/25 02:31:48;;;;;;;10.52;4.32;;;6.80;99.90;;;;;;5048424;28;20039;-65
2021/04/25 02:34:15;;;;;;;12.35;4.60;;;6.70;99.90;;;;;;5051806;28;20060;-63
2021/04/25 02:36:42;;;;;;;16.38;5.10;;;6.70;99.90;;;;;;5053033;28;20452;-64
2021/04/25 02:39:08;;;;;;;11.90;4.55;;;6.70;99.90;;;;;;5051110;28;20105;-64
2021/04/25 02:41:33;;;;;;;10.07;3.95;;;6.70;99.90;;;;;;5052937;28;20048;-64
2021/04/25 02:43:59;;;;;;;16.75;4.35;;;6.60;99.90;;;;;;5052969;28;20029;-64
2021/04/25 02:46:25;;;;;;;9.68;4.40;;;6.60;99.90;;;;;;5053063;28;20036;-64
2021/04/25 02:48:51;;;;;;;10.57;5.22;;;6.50;99.90;;;;;;5052635;28;20028;-65
2021/04/25 02:51:17;;;;;;;10.48;4.18;;;6.40;99.90;;;;;;5043990;28;20072;-64
2021/04/25 02:53:43;;;;;;;8.07;4.50;;;6.40;99.90;;;;;;5053017;28;20087;-64
2021/04/25 02:56:09;;;;;;;10.23;4.18;;;6.50;99.90;;;;;;5052628;28;20040;-65
2021/04/25 02:58:34;;;;;;;15.77;4.97;;;6.50;99.90;;;;;;5052773;28;20462;-65
2021/04/25 03:01:00;;;;;;;10.82;4.50;;;6.50;99.90;;;;;;5052018;28;20397;-64
2021/04/25 03:03:26;;;;;;;14.18;5.18;;;6.40;99.90;;;;;;5052727;28;20490;-64
2021/04/25 03:05:57;;;;;;;12.13;4.43;;;6.30;99.90;;;;;;5052444;28;20666;-64
2021/04/25 03:08:23;;;;;;;12.48;4.72;;;6.30;99.90;;;;;;5044260;28;20029;-63
2021/04/25 03:10:50;;;;;;;8.18;4.30;;;6.20;99.90;;;;;;5052531;28;20128;-64
2021/04/25 03:13:16;;;;;;;10.77;4.43;;;6.30;99.90;;;;;;5052636;28;20107;-64
2021/04/25 03:15:42;;;;;;;16.27;5.13;;;6.20;99.90;;;;;;5052226;28;20115;-65
2021/04/25 03:18:08;;;;;;;12.95;5.35;;;6.20;99.90;;;;;;5052542;28;20120;-65
2021/04/25 03:20:33;;;;;;;10.52;4.10;;;6.10;99.90;;;;;;5052391;28;20048;-64
2021/04/25 03:23:00;;;;;;;12.23;4.47;;;6.20;99.90;;;;;;5052350;28;20033;-64
2021/04/25 03:25:25;;;;;;;13.30;4.30;;;6.10;99.90;;;;;;5044260;28;20045;-64
2021/04/25 03:27:52;;;;;;;15.20;5.07;;;6.00;99.90;;;;;;5052285;28;20029;-64
2021/04/25 03:30:18;;;;;;;13.02;4.82;;;5.90;99.90;;;;;;5051935;28;20083;-64
2021/04/25 03:32:45;;;;;;;8.82;3.85;;;5.90;99.90;;;;;;5047024;28;20029;-64
2021/04/25 03:35:13;;;;;;;12.13;4.32;;;5.90;99.90;;;;;;5052053;28;20107;-64
2021/04/25 03:37:40;;;;;;;8.80;4.78;;;5.90;99.90;;;;;;5052430;28;20029;-64
2021/04/25 03:40:09;;;;;;;14.50;5.13;;;5.90;99.90;;;;;;5049722;28;20484;-64
2021/04/25 03:42:35;;;;;;;23.80;5.53;;;5.90;99.90;;;;;;5034245;28;20037;-64
2021/04/25 03:45:03;;;;;;;9.13;4.57;;;5.90;99.90;;;;;;5052304;28;20056;-64
2021/04/25 03:47:29;;;;;;;13.85;4.43;;;5.90;99.90;;;;;;5044875;28;20041;-64
2021/04/25 03:49:54;;;;;;;19.40;5.70;;;5.90;99.90;;;;;;5052181;28;20048;-63
2021/04/25 03:52:20;;;;;;;11.32;4.70;;;5.80;99.90;;;;;;5034133;28;20154;-64
2021/04/25 03:54:46;;;;;;;10.88;4.97;;;5.80;99.90;;;;;;5051927;28;20165;-64
2021/04/25 03:57:12;;;;;;;17.35;4.80;;;5.80;99.90;;;;;;5052135;28;20044;-64
2021/04/25 03:59:37;;;;;;;15.55;5.32;;;5.70;99.90;;;;;;5051828;28;20064;-64
2021/04/25 04:02:03;;;;;;;8.43;5.20;;;5.70;99.90;;;;;;5052145;28;20354;-64
2021/04/25 04:04:29;;;;;;;9.00;4.68;;;5.60;99.90;;;;;;5051673;28;20092;-64
2021/04/25 04:06:55;;;;;;;11.88;5.22;;;5.60;99.90;;;;;;5051828;28;20032;-64
2021/04/25 04:09:20;;;;;;;10.95;5.30;;;5.60;99.90;;;;;;5043534;28;20078;-63
2021/04/25 04:11:46;;;;;;;12.43;5.35;;;5.60;99.90;;;;;;5053513;28;20036;-63
2021/04/25 04:14:12;;;;;;;12.55;4.20;;;5.70;99.90;;;;;;5055495;28;20027;-63
2021/04/25 04:16:38;;;;;;;13.27;5.00;;;5.60;99.90;;;;;;5055702;28;20132;-63
2021/04/25 04:19:05;;;;;;;13.55;4.82;;;5.60;99.90;;;;;;5056001;28;20108;-64
2021/04/25 04:21:31;;;;;;;18.17;4.78;;;5.60;99.90;;;;;;5055480;28;20107;-64
2021/04/25 04:23:57;;;;;;;12.77;6.20;;;5.60;99.90;;;;;;5038136;28;20109;-64
2021/04/25 04:26:23;;;;;;;11.77;4.90;;;5.50;99.90;;;;;;5055603;28;20103;-64
2021/04/25 04:28:48;;;;;;;10.70;5.05;;;5.50;99.90;;;;;;5055811;28;20098;-64
2021/04/25 04:31:14;;;;;;;12.73;5.05;;;5.50;99.90;;;;;;5055362;28;20098;-64
2021/04/25 04:33:40;;;;;;;11.23;4.97;;;5.60;99.90;;;;;;5049719;28;20035;-64
2021/04/25 04:36:07;;;;;;;11.10;5.05;;;5.50;99.90;;;;;;5055328;28;20037;-64
2021/04/25 04:38:33;;;;;;;13.60;5.35;;;5.50;99.90;;;;;;5055489;28;20059;-64
2021/04/25 04:41:00;;;;;;;11.32;4.68;;;5.50;99.90;;;;;;5055455;28;20036;-64
2021/04/25 04:43:26;;;;;;;12.20;5.15;;;5.50;99.90;;;;;;5055354;28;20029;-64
2021/04/25 04:45:52;;;;;;;13.35;4.88;;;5.40;99.90;;;;;;5055120;28;20033;-64
2021/04/25 04:48:18;;;;;;;11.57;4.53;;;5.40;99.90;;;;;;5055357;28;20025;-64
2021/04/25 04:50:44;;;;;;;9.93;4.65;;;5.40;99.90;;;;;;5055130;28;20182;-64
2021/04/25 04:53:10;;;;;;;13.07;5.43;;;5.40;99.90;;;;;;5055360;28;20492;-64
2021/04/25 04:55:36;;;;;;;11.27;5.18;;;5.40;99.90;;;;;;5054759;28;20037;-64
2021/04/25 04:58:02;;;;;;;10.15;4.43;;;5.40;99.90;;;;;;5055308;28;20029;-65
2021/04/25 05:00:28;;;;;;;13.18;5.07;;;5.40;99.90;;;;;;5030926;28;20029;-64
2021/04/25 05:02:54;;;;;;;9.13;4.50;;;5.40;99.90;;;;;;5054931;28;20569;-64
2021/04/25 05:05:19;;;;;;;10.57;4.68;;;5.50;99.90;;;;;;5054858;28;20032;-64
2021/04/25 05:07:45;;;;;;;16.35;5.40;;;5.50;99.90;;;;;;5055039;28;20034;-64
2021/04/25 05:10:11;;;;;;;13.77;5.45;;;5.50;99.90;;;;;;5054979;28;20029;-63
2021/04/25 05:12:37;;;;;;;10.32;5.22;;;5.40;99.90;;;;;;5054789;28;20072;-63
2021/04/25 05:15:07;;;;;;;12.45;5.43;;;5.50;99.90;;;;;;5054604;28;20029;-64
2021/04/25 05:17:33;;;;;;;9.57;4.70;;;5.60;99.90;;;;;;5054427;28;20509;-64
2021/04/25 05:19:59;;;;;;;16.70;5.70;;;5.50;99.90;;;;;;5054867;28;20493;-64
2021/04/25 05:22:25;;;;;;;12.45;4.45;;;5.50;99.90;;;;;;5053750;28;20049;-64
2021/04/25 05:24:51;;;;;;;11.55;4.53;;;5.60;99.90;;;;;;5049691;28;20127;-65
2021/04/25 05:27:17;;;;;;;11.25;5.22;;;5.60;99.90;;;;;;5054069;28;20121;-65
2021/04/25 05:29:43;;;;;;;13.43;4.95;;;5.70;99.90;;;;;;5054639;28;20135;-64
2021/04/25 05:32:09;;;;;;;10.02;4.93;;;5.80;99.90;;;;;;5035754;28;20116;-64
2021/04/25 05:34:35;;;;;;;10.18;5.30;;;5.70;99.90;;;;;;5036379;28;20033;-67
2021/04/25 05:37:01;;;;;;;14.68;4.45;;;5.80;99.90;;;;;;5051322;28;20055;-67
2021/04/25 05:39:27;;;;;;;9.52;4.65;;;5.80;99.90;;;;;;5054305;28;20381;-66
2021/04/25 05:41:53;;;;;;;12.50;4.68;;;6.00;99.90;;;;;;5054291;28;20036;-66
2021/04/25 05:44:18;;;;;;;11.10;4.53;;;5.90;99.90;;;;;;5054139;28;20029;-67
2021/04/25 05:46:44;;;;;;;13.82;5.30;;;6.00;99.90;;;;;;5054307;28;20053;-69
2021/04/25 05:49:10;;;;;;;12.20;4.50;;;6.10;99.90;;;;;;5052514;28;20395;-67
2021/04/25 05:51:36;;;;;;;14.02;4.53;;;6.10;99.90;;;;;;5053665;28;20056;-66
2021/04/25 05:54:03;;;;;;;13.00;5.18;;;6.10;99.90;;;;;;5051308;28;20025;-67
2021/04/25 05:56:30;;;;;;;12.95;4.78;;;6.30;99.90;;;;;;5053786;28;20025;-68
2021/04/25 05:58:56;;;;;;;11.20;4.15;;;6.30;99.90;;;;;;5050471;28;20393;-69
2021/04/25 06:01:22;;;;;;;10.02;4.82;;;6.40;99.90;;;;;;5053771;28;20115;-69
2021/04/25 06:03:58;;;;;;;;;;;;;;;;;;;;;
2021/04/25 06:06:24;;;;;;;11.95;4.38;;;6.60;99.90;;;;;;5033426;28;20486;-70
2021/04/25 06:08:50;;;;;;;12.90;4.70;;;6.70;99.90;;;;;;5036400;28;20117;-69
2021/04/25 06:11:16;;;;;;;13.50;5.65;;;6.70;99.90;;;;;;5033456;28;20038;-69
2021/04/25 06:13:42;;;;;;;13.35;5.13;;;6.80;99.90;;;;;;5033778;28;20022;-69
2021/04/25 06:16:08;;;;;;;10.35;4.00;;;6.90;99.90;;;;;;5032388;28;20025;-69
2021/04/25 06:18:33;;;;;;;12.73;4.18;;;6.90;99.90;;;;;;5033610;28;20033;-69
2021/04/25 06:20:59;;;;;;;14.55;4.90;;;7.00;99.90;;;;;;5033390;28;20053;-69
2021/04/25 06:23:25;;;;;;;10.43;4.25;;;7.00;99.90;;;;;;5033430;28;20029;-68
2021/04/25 06:25:51;;;;;;;11.48;4.30;;;7.20;99.90;;;;;;5033667;28;20025;-67
2021/04/25 06:28:17;;;;;;;9.75;4.82;;;7.20;99.90;;;;;;5033467;28;20026;-69
2021/04/25 06:30:43;;;;;;;14.85;4.75;;;7.30;99.90;;;;;;5033144;28;20033;-68
2021/04/25 06:33:09;;;;;;;10.48;4.20;;;7.40;99.90;;;;;;5033509;28;20099;-68
2021/04/25 06:35:34;;;;;;;7.53;4.35;;;7.50;99.90;;;;;;5032866;28;20052;-68
2021/04/25 06:38:00;;;;;;;10.77;3.72;;;7.50;99.90;;;;;;5033334;28;20025;-69
2021/04/25 06:40:26;;;;;;;11.20;4.68;;;7.60;99.90;;;;;;5033262;28;20104;-68
2021/04/25 06:42:52;;;;;;;11.75;4.75;;;7.70;99.90;;;;;;5031959;28;20402;-67
2021/04/25 06:45:22;;;;;;;12.75;3.90;;;7.70;99.90;;;;;;5031536;28;20482;-72
2021/04/25 06:47:48;;;;;;;9.55;4.50;;;7.80;99.90;;;;;;5031179;28;20490;-67
2021/04/25 06:50:15;;;;;;;11.30;3.80;;;7.90;99.90;;;;;;5033174;28;20543;-70
2021/04/25 06:52:44;;;;;;;12.00;5.32;;;8.00;99.90;;;;;;5032996;28;20029;-70
2021/04/25 06:55:16;;;;;;;7.78;4.13;;;8.10;99.90;;;;;;5032982;28;20029;-67
2021/04/25 06:57:44;;;;;;;10.07;4.03;;;8.20;99.90;;;;;;5032775;28;20044;-65
2021/04/25 07:00:12;;;;;;;11.80;4.53;;;8.30;99.90;;;;;;5015303;28;20516;-67
2021/04/25 07:02:38;;;;;;;13.65;4.55;;;8.40;99.90;;;;;;5032291;28;20033;-65
2021/04/25 07:05:06;;;;;;;10.75;4.75;;;8.40;99.90;;;;;;5014090;28;20538;-68
2021/04/25 07:07:32;;;;;;;20.42;7.85;;;8.50;99.90;;;;;;5031181;28;20068;-67
2021/04/25 07:09:59;;;;;;;9.77;4.32;;;8.60;99.90;;;;;;5031504;28;20056;-69
2021/04/25 07:12:26;;;;;;;8.68;4.20;;;8.70;99.90;;;;;;5032454;28;20037;-69
2021/04/25 07:14:53;;;;;;;15.45;4.97;;;8.80;99.90;;;;;;5032792;28;20053;-69
2021/04/25 07:17:19;;;;;;;10.18;5.03;;;9.00;99.90;;;;;;5032598;28;20041;-69
2021/04/25 07:19:45;;;;;;;12.68;4.53;;;9.00;99.90;;;;;;5032229;28;20029;-69
2021/04/25 07:22:11;;;;;;;12.00;4.70;;;9.10;99.90;;;;;;5014548;28;20041;-69
2021/04/25 07:24:37;;;;;;;9.80;4.15;;;9.20;99.90;;;;;;5032562;28;20038;-68
2021/04/25 07:27:04;;;;;;;9.60;4.25;;;9.40;99.90;;;;;;5032611;28;20086;-68
2021/04/25 07:29:30;;;;;;;9.25;4.60;;;9.50;99.90;;;;;;5032446;28;20029;-69
2021/04/25 07:31:57;;;;;;;11.60;4.75;;;9.60;99.90;;;;;;5032439;28;20060;-68
2021/04/25 07:34:24;;;;;;;12.15;4.78;;;9.70;99.90;;;;;;5032106;28;20493;-66
2021/04/25 07:36:51;;;;;;;8.15;4.25;;;9.70;99.90;;;;;;5032419;28;20068;-74
2021/04/25 07:39:17;;;;;;;11.68;4.32;;;9.70;99.90;;;;;;5014621;28;20095;-68
2021/04/25 07:41:43;;;;;;;13.35;4.55;;;9.80;99.90;;;;;;5032383;28;20474;-68
2021/04/25 07:44:09;;;;;;;11.15;4.57;;;9.90;99.90;;;;;;5014046;28;20029;-69
2021/04/25 07:46:35;;;;;;;17.80;4.50;;;10.00;99.80;;;;;;5031194;28;20033;-67
2021/04/25 07:49:00;;;;;;;9.88;4.40;;;10.20;99.70;;;;;;5014500;28;20053;-69
2021/04/25 07:51:26;;;;;;;9.63;4.53;;;10.40;99.30;;;;;;5032103;28;20116;-69
2021/04/25 07:53:54;;;;;;;10.32;4.38;;;10.50;98.80;;;;;;5032047;28;20025;-69
2021/04/25 07:56:20;;;;;;;8.75;4.13;;;10.60;98.30;;;;;;5032313;28;20108;-68
2021/04/25 07:58:45;;;;;;;14.70;4.93;;;10.70;97.60;;;;;;5014048;28;20180;-68
2021/04/25 08:01:11;;;;;;;9.75;4.50;;;10.70;97.80;;;;;;5032042;28;20030;-68
2021/04/25 08:03:37;;;;;;;16.42;4.78;;;10.80;97.80;;;;;;5031913;28;20029;-68
2021/04/25 08:06:05;;;;;;;12.23;4.40;;;10.80;97.60;;;;;;5032166;28;20073;-68
2021/04/25 08:08:31;;;;;;;7.97;3.67;;;10.90;97.60;;;;;;5031591;28;20057;-69
2021/04/25 08:10:56;;;;;;;11.30;3.78;;;11.00;97.30;;;;;;5014489;28;20103;-69
2021/04/25 08:13:22;;;;;;;10.82;4.07;;;11.00;96.70;;;;;;5018028;28;20037;-69
2021/04/25 08:15:48;;;;;;;16.25;4.20;;;11.00;96.80;;;;;;5050529;28;20032;-69
2021/04/25 08:18:14;;;;;;;7.00;3.83;;;11.10;96.80;;;;;;5051874;28;20033;-69
2021/04/25 08:20:40;;;;;;;16.13;3.90;;;11.20;96.70;;;;;;5051456;28;20049;-68
2021/04/25 08:23:06;;;;;;;11.45;3.70;;;11.20;96.40;;;;;;5051899;28;20196;-68
2021/04/25 08:25:32;;;;;;;13.15;4.38;;;11.40;96.10;;;;;;5044549;28;20068;-68
2021/04/25 08:27:59;;;;;;;11.38;4.93;;;11.50;95.70;;;;;;5051687;28;20044;-68
2021/04/25 08:30:25;;;;;;;7.25;4.55;;;11.30;95.50;;;;;;5051762;28;20033;-68
2021/04/25 08:32:51;;;;;;;10.90;4.20;;;11.40;95.20;;;;;;5051581;28;20039;-68
2021/04/25 08:35:18;;;;;;;9.98;4.25;;;11.60;95.20;;;;;;5051465;28;20389;-67
2021/04/25 08:37:47;;;;;;;9.75;4.05;;;11.60;95.00;;;;;;5051724;28;20057;-67
2021/04/25 08:40:14;;;;;;;21.83;9.40;;;11.70;94.90;;;;;;5033545;28;20029;-68
2021/04/25 08:42:43;;;;;;;12.15;5.20;;;11.90;94.60;;;;;;5051670;28;20539;-68
2021/04/25 08:45:09;;;;;;;12.80;4.28;;;12.10;93.80;;;;;;5049697;28;20425;-68
2021/04/25 08:47:51;;;;;;;12.40;3.45;;;12.20;92.60;;;;;;5051473;28;20094;-68
2021/04/25 08:50:17;;;;;;;10.82;4.05;;;12.40;92.50;;;;;;5042579;28;20036;-68
2021/04/25 08:52:44;;;;;;;6.72;3.78;;;12.50;91.90;;;;;;5050843;28;20041;-68
2021/04/25 08:55:12;;;;;;;7.53;3.78;;;12.60;91.00;;;;;;5033448;28;20429;-68
2021/04/25 08:57:38;;;;;;;8.93;3.67;;;12.70;90.60;;;;;;5051171;28;20367;-68
2021/04/25 09:00:06;;;;;;;8.48;4.07;;;12.60;90.30;;;;;;5052087;28;20501;-69
2021/04/25 09:02:32;;;;;;;6.88;3.33;;;12.70;90.50;;;;;;5047845;28;20498;-69
2021/04/25 09:04:58;;;;;;;9.63;3.83;;;12.90;88.50;;;;;;5053604;28;20025;-67
2021/04/25 09:07:24;;;;;;;12.32;4.03;;;13.10;86.70;;;;;;5054728;28;20545;-68
2021/04/25 09:10:02;;;;;;;10.45;3.35;;;13.10;85.60;;;;;;5050237;28;20199;-69
2021/04/25 09:12:44;;;;;;;12.50;3.30;;;13.00;84.30;;;;;;5054943;28;20037;-70
2021/04/25 09:15:13;;;;;;;10.57;3.15;;;13.10;84.40;;;;;;5054603;28;20025;-69
2021/04/25 09:17:59;;;;;;;6.68;3.20;;;13.20;83.70;;;;;;5036520;28;20048;-68
2021/04/25 09:20:47;;;;;;;8.85;3.40;;;13.10;84.20;;;;;;5052658;28;20391;-68
2021/04/25 09:23:35;;;;;;;9.43;3.58;;;12.70;85.00;;;;;;5054914;28;20395;-68
2021/04/25 09:26:06;;;;;;;12.95;5.05;;;13.10;82.80;;;;;;5054714;28;20381;-69
2021/04/25 09:28:34;;;;;;;;;;;13.30;82.00;;;;;;5054968;28;20369;-68
2021/04/25 09:31:14;;;;;;;11.23;2.97;;;13.20;81.90;;;;;;5036175;28;20026;-68
2021/04/25 09:33:55;;;;;;;8.52;3.20;;;13.60;82.40;;;;;;5036467;28;20033;-70
2021/04/25 09:36:23;;;;;;;;;;;13.90;82.30;;;;;;5054912;28;20116;-68
2021/04/25 09:38:54;;;;;;;9.57;3.20;;;14.00;77.90;;;;;;5054131;28;19916;-68
2021/04/25 09:41:32;;;;;;;10.07;2.85;;;14.00;77.50;;;;;;5054364;28;20466;-69
2021/04/25 09:44:00;;;;;;;6.93;2.78;;;14.20;75.90;;;;;;5054214;28;20543;-68
2021/04/25 09:46:53;;;;;;;8.45;3.13;;;14.10;73.70;;;;;;5053987;28;20033;-69
2021/04/25 09:49:45;;;;;;;5.43;2.97;;;14.00;70.60;;;;;;5053949;28;20048;-69
2021/04/25 09:52:15;;;;;;;13.52;3.95;;;14.00;70.00;;;;;;5052795;28;20037;-69
2021/04/25 09:54:41;;;;;;;6.07;2.97;;;14.10;70.80;;;;;;5053732;28;20021;-69
2021/04/25 09:57:28;;;;;;;6.82;3.00;;;14.00;72.20;;;;;;5054035;28;20091;-68
2021/04/25 09:59:53;;;;;;;9.32;2.70;;;14.60;73.70;;;;;;5032643;28;20486;-68
2021/04/25 10:02:20;;;;;;;6.97;3.15;;;15.00;68.40;;;;;;5053863;28;20132;-68
2021/04/25 10:04:46;;;;;;;5.25;2.92;;;15.00;66.50;;;;;;5053668;28;20470;-68
2021/04/25 10:07:13;;;;;;;6.10;2.90;;;14.50;64.90;;;;;;5053587;28;20029;-69
2021/04/25 10:09:38;;;;;;;8.18;2.67;;;14.80;65.90;;;;;;5053086;28;20033;-68
2021/04/25 10:12:05;;;;;;;7.13;2.72;;;15.10;63.90;;;;;;5053698;28;20029;-68
2021/04/25 10:14:34;;;;;;;8.70;3.30;;;15.30;63.70;;;;;;5035065;28;20044;-68
2021/04/25 10:17:02;;;;;;;6.45;3.17;;;15.40;64.20;;;;;;5053533;28;20055;-69
2021/04/25 10:19:29;;;;;;;5.72;2.63;;;15.20;64.20;;;;;;5053633;28;20025;-69
2021/04/25 10:21:55;;;;;;;9.38;2.95;;;15.20;64.50;;;;;;5053088;28;20122;-68
2021/04/25 10:24:21;;;;;;;6.55;2.70;;;15.40;63.90;;;;;;5044355;28;20523;-69
2021/04/25 10:27:09;;;;;;;6.95;3.38;;;15.30;60.10;;;;;;5052029;28;20033;-69
2021/04/25 10:29:56;;;;;;;5.57;2.90;;;15.50;59.20;;;;;;5053269;28;20041;-68
2021/04/25 10:32:22;;;;;;;8.30;2.67;;;15.10;59.40;;;;;;5045278;28;20485;-68
2021/04/25 10:35:09;;;;;;;7.68;3.40;;;15.50;60.00;;;;;;5048401;28;20033;-68
2021/04/25 10:37:39;;;;;;;6.28;2.67;;;15.80;60.80;;;;;;5046447;28;20470;-68
2021/04/25 10:40:35;;;;;;;8.30;2.93;;;15.80;62.20;;;;;;5033737;28;20037;-68
2021/04/25 10:43:06;;;;;;;10.80;2.67;;;15.60;61.00;;;;;;5052768;28;20069;-68
2021/04/25 10:45:58;;;;;;;7.20;2.88;;;15.80;57.70;;;;;;5034972;28;20393;-68
2021/04/25 10:48:42;;;;;;;8.65;2.97;;;15.80;56.60;;;;;;5052468;28;20421;-68
2021/04/25 10:51:12;;;;;;;8.45;3.10;;;16.10;57.70;;;;;;5052822;28;20029;-70
2021/04/25 10:53:42;;;;;;;6.57;2.60;;;16.40;58.60;;;;;;5052812;28;20033;-68
2021/04/25 10:56:15;;;;;;;;;;;16.30;59.00;;;;;;5053081;28;20645;-68
2021/04/25 10:58:46;;;;;;;7.05;3.08;;;15.70;58.70;;;;;;5034596;28;20354;-68
2021/04/25 11:01:38;;;;;;;7.97;3.38;;;15.90;60.10;;;;;;5034901;28;20040;-67
2021/04/25 11:04:04;;;;;;;5.95;2.78;;;15.70;60.60;;;;;;5052829;28;20029;-68
2021/04/25 11:06:30;;;;;;;7.40;2.25;;;16.40;59.90;;;;;;5052387;28;20035;-70
2021/04/25 11:09:01;;;;;;;8.85;2.85;;;16.90;57.40;;;;;;5051046;28;20108;-70
2021/04/25 11:11:34;;;;;;;;;;;16.90;55.20;;;;;;5052781;28;20505;-68
2021/04/25 11:14:01;;;;;;;9.30;2.58;;;17.30;54.40;;;;;;5052506;28;20351;-68
2021/04/25 11:16:29;;;;;;;5.82;2.63;;;17.10;54.50;;;;;;5028165;28;20029;-69
2021/04/25 11:19:15;;;;;;;9.77;3.45;;;17.10;56.00;;;;;;5052347;28;20128;-69
2021/04/25 11:21:59;;;;;;;7.68;2.58;;;16.90;55.50;;;;;;5045585;28;20053;-69
2021/04/25 11:24:29;;;;;;;5.70;2.33;;;16.80;54.20;;;;;;5052265;28;20037;-70
2021/04/25 11:26:59;;;;;;;10.45;2.70;;;16.10;54.30;;;;;;5052343;28;20517;-69
2021/04/25 11:29:27;;;;;;;4.80;2.50;;;16.40;55.50;;;;;;5052586;28;20112;-69
2021/04/25 11:31:59;;;;;;;5.20;2.25;;;16.50;55.00;;;;;;5051761;28;20044;-68
2021/04/25 11:34:28;;;;;;;5.20;2.63;;;16.90;55.70;;;;;;5052274;28;20021;-69
2021/04/25 11:37:18;;;;;;;6.10;2.80;;;17.30;54.70;;;;;;5052094;28;20029;-68
2021/04/25 11:40:02;;;;;;;7.93;2.30;;;17.10;53.60;;;;;;5052212;28;20029;-68
2021/04/25 11:42:37;;;;;;;6.68;2.40;;;16.70;55.70;;;;;;5044828;28;20470;-69
2021/04/25 11:45:30;;;;;;;5.13;2.08;;;17.40;53.90;;;;;;5052130;28;20470;-69
2021/04/25 11:48:02;;;;;;;8.18;2.80;;;17.40;53.70;;;;;;5049208;28;20123;-68
2021/04/25 11:50:38;;;;;;;6.03;2.25;;;16.10;54.40;;;;;;5052172;28;20036;-68
2021/04/25 11:53:05;;;;;;;4.65;2.53;;;16.70;53.10;;;;;;5052082;28;20119;-67
2021/04/25 11:55:32;;;;;;;5.60;2.20;;;17.20;51.20;;;;;;5051895;28;20421;-69
2021/04/25 11:57:58;;;;;;;5.75;2.20;;;17.50;50.40;;;;;;5051375;28;20044;-68
2021/04/25 12:00:35;;;;;;;8.43;2.20;;;17.50;50.40;;;;;;5052013;28;20025;-69
2021/04/25 12:03:04;;;;;;;3.28;1.67;;;17.60;50.40;;;;;;5049049;28;20057;-69
2021/04/25 12:05:38;;;;;;;7.28;2.15;;;17.60;49.80;;;;;;5052096;28;20108;-69
2021/04/25 12:08:09;;;;;;;6.65;2.33;;;17.70;50.00;;;;;;5051876;28;20029;-69
2021/04/25 12:10:47;;;;;;;4.80;1.73;;;18.20;50.80;;;;;;5051634;28;20401;-69
2021/04/25 12:13:21;;;;;;;5.25;1.60;;;18.50;49.00;;;;;;5050480;28;20025;-69
2021/04/25 12:15:55;;;;;;;6.85;2.05;;;18.90;49.90;;;;;;5051882;28;20025;-69
2021/04/25 12:18:32;;;;;;;4.22;1.77;;;18.10;50.30;;;;;;5042880;28;20033;-68
2021/04/25 12:21:06;;;;;;;4.57;2.50;;;19.00;49.40;;;;;;5042536;28;20049;-69
2021/04/25 12:23:38;;;;;;;6.95;2.10;;;18.80;46.70;;;;;;5035853;28;20034;-68
2021/04/25 12:26:15;;;;;;;6.32;2.08;;;18.40;47.80;;;;;;5026389;28;20038;-66
2021/04/25 12:28:54;;;;;;;10.85;1.88;;;18.90;47.60;;;;;;5031618;28;20029;-68
2021/04/25 12:31:23;;;;;;;4.43;2.17;;;19.20;46.20;;;;;;4998503;28;20457;-68
2021/04/25 12:33:54;;;;;;;8.82;3.38;;;18.60;45.30;;;;;;5034899;28;20037;-69
2021/04/25 12:36:24;;;;;;;;;;;18.50;46.60;;;;;;5036131;28;20041;-65
2021/04/25 12:39:04;;;;;;;6.75;2.13;;;18.60;48.00;;;;;;5035400;28;20007;-67
2021/04/25 12:41:48;;;;;;;5.78;2.38;;;18.70;46.10;;;;;;5017476;28;20030;-68
2021/04/25 12:44:17;;;;;;;5.85;1.80;;;18.80;46.00;;;;;;5035405;28;20025;-68
2021/04/25 12:47:01;;;;;;;7.63;2.58;;;18.60;46.00;;;;;;5035237;28;20037;-70
2021/04/25 12:49:35;;;;;;;4.60;1.92;;;19.20;45.30;;;;;;5035360;28;20060;-70
2021/04/25 12:52:03;;;;;;;7.72;1.90;;;19.50;44.50;;;;;;5035267;28;20093;-71
2021/04/25 12:54:44;;;;;;;7.90;2.30;;;19.20;45.30;;;;;;5035438;28;20103;-68
2021/04/25 12:57:10;;;;;;;;;;;19.70;44.80;;;;;;5035739;28;20041;-69